Time;durP1;ratioP1;P1;durP2;ratioP2;P2;SDS_P1;SDS_P2;PMS_P1;PMS_P2;Temp;Humidity;BMP_temperature;BMP_pressure;BME280_temperature;BME280_humidity;BME280_pressure;Samples;Min_cycle;Max_cycle;Signal;HPM_P1;HPM_P2
2022/08/22 00:00:57;;;;;;;;;;;16.30;99.90;;;;;;5077579;28;20000;-66
2022/08/22 00:03:34;;;;;;;;;;;16.30;99.90;;;;;;5086225;28;20015;-66
2022/08/22 00:06:13;;;;;;;;;;;16.30;99.90;;;;;;5078670;28;19922;-67
2022/08/22 00:09:01;;;;;;;;;;;16.20;99.90;;;;;;5089646;28;20005;-66
2022/08/22 00:11:47;;;;;;;;;;;16.20;99.90;;;;;;5085587;28;20365;-66
2022/08/22 00:14:13;;;;;;;;;;;16.20;99.90;;;;;;5085408;28;19918;-66
2022/08/22 00:16:44;;;;;;;;;;;16.10;99.90;;;;;;5087420;28;20002;-65
2022/08/22 00:19:17;;;;;;;;;;;16.00;99.90;;;;;;5086696;28;19924;-66
2022/08/22 00:21:46;;;;;;;;;;;15.90;99.90;;;;;;5092038;28;19993;-66
2022/08/22 00:24:21;;;;;;;;;;;15.90;99.90;;;;;;5089458;28;20375;-65
2022/08/22 00:26:54;;;;;;;;;;;15.90;99.90;;;;;;5082860;28;19934;-65
2022/08/22 00:29:29;;;;;;;;;;;15.80;99.90;;;;;;5087531;28;19917;-66
2022/08/22 00:32:19;;;;;;;;;;;15.80;99.90;;;;;;5082882;28;19998;-66
2022/08/22 00:34:45;;;;;;;;;;;15.90;99.90;;;;;;5064233;28;20326;-66
2022/08/22 00:37:24;;;;;;;;;;;15.80;99.90;;;;;;5089521;28;19966;-67
2022/08/22 00:40:01;;;;;;;;;;;15.80;99.90;;;;;;5089017;28;19953;-67
2022/08/22 00:42:45;;;;;;;;;;;15.70;99.90;;;;;;5067294;28;19916;-66
2022/08/22 00:45:17;;;;;;;;;;;15.70;99.90;;;;;;5089513;28;19912;-66
2022/08/22 00:47:43;;;;;;;;;;;15.70;99.90;;;;;;5093720;28;20365;-66
2022/08/22 00:50:27;;;;;;;;;;;15.70;99.90;;;;;;5086410;28;19978;-66
2022/08/22 00:53:11;;;;;;;;;;;15.60;99.90;;;;;;5076633;28;19912;-66
2022/08/22 00:56:01;;;;;;;;;;;15.50;99.90;;;;;;5089371;28;19913;-67
2022/08/22 00:58:33;;;;;;;;;;;15.50;99.90;;;;;;5089788;28;19973;-65
2022/08/22 01:01:01;;;;;;;;;;;15.40;99.90;;;;;;5083151;28;19927;-66
2022/08/22 01:03:39;;;;;;;;;;;15.40;99.90;;;;;;5067912;28;20395;-65
2022/08/22 01:06:20;;;;;;;;;;;15.40;99.90;;;;;;5082350;28;20071;-66
2022/08/22 01:08:45;;;;;;;;;;;15.40;99.90;;;;;;5075310;28;20358;-66
2022/08/22 01:11:11;;;;;;;;;;;15.20;99.90;;;;;;5080011;28;19912;-66
2022/08/22 01:13:57;;;;;;;;;;;15.10;99.90;;;;;;5063968;28;19913;-66
2022/08/22 01:16:29;;;;;;;;;;;15.00;99.90;;;;;;5084741;28;19912;-66
2022/08/22 01:19:28;;;;;;;;;;;15.00;99.90;;;;;;5077926;28;19926;-65
2022/08/22 01:22:17;;;;;;;;;;;15.00;99.90;;;;;;5076806;28;20354;-65
2022/08/22 01:25:31;;;;;;;;;;;15.00;99.90;;;;;;5080328;28;20269;-66
2022/08/22 01:27:56;;;;;;;;;;;14.90;99.90;;;;;;5079973;28;19920;-65
2022/08/22 01:30:24;;;;;;;;;;;15.00;99.90;;;;;;5080772;28;19912;-66
2022/08/22 01:32:49;;;;;;;;;;;15.00;99.90;;;;;;5070831;28;19921;-66
2022/08/22 01:35:34;;;;;;;;;;;15.00;99.90;;;;;;5076397;28;19927;-66
2022/08/22 01:37:59;;;;;;;;;;;15.00;99.90;;;;;;5058130;28;19927;-66
2022/08/22 01:40:25;;;;;;;;;;;15.00;99.90;;;;;;5081069;28;19912;-66
2022/08/22 01:42:59;;;;;;;;;;;15.00;99.90;;;;;;5066791;28;19936;-65
2022/08/22 01:45:43;;;;;;;;;;;14.90;99.90;;;;;;5076979;28;20263;-66
2022/08/22 01:48:16;;;;;;;;;;;14.90;99.90;;;;;;5082644;28;19920;-67
2022/08/22 01:50:49;;;;;;;;;;;14.80;99.90;;;;;;5071818;28;19973;-66
2022/08/22 01:53:21;;;;;;;;;;;14.80;99.90;;;;;;5085137;28;20378;-66
2022/08/22 01:55:47;;;;;;;;;;;14.80;99.90;;;;;;5085373;28;20321;-65
2022/08/22 01:58:18;;;;;;;;;;;14.80;99.90;;;;;;5071276;28;19920;-65
2022/08/22 02:01:07;;;;;;;;;;;14.80;99.90;;;;;;5071934;28;19912;-66
2022/08/22 02:03:35;;;;;;;;;;;14.80;99.90;;;;;;5082103;28;19916;-67
2022/08/22 02:06:08;;;;;;;;;;;14.70;99.90;;;;;;5083487;28;20596;-66
2022/08/22 02:08:41;;;;;;;;;;;14.60;99.90;;;;;;5094084;28;19916;-65
2022/08/22 02:11:30;;;;;;;;;;;14.50;99.90;;;;;;5071675;28;19912;-65
2022/08/22 02:13:59;;;;;;;;;;;14.50;99.90;;;;;;5044157;28;19947;-66
2022/08/22 02:16:35;;;;;;;;;;;14.50;99.90;;;;;;5074856;28;19919;-66
2022/08/22 02:19:03;;;;;;;;;;;14.50;99.90;;;;;;5088523;28;20366;-66
2022/08/22 02:21:44;;;;;;;;;;;14.60;99.90;;;;;;5076298;28;20026;-67
2022/08/22 02:24:15;;;;;;;;;;;14.50;99.90;;;;;;5090592;28;20366;-67
2022/08/22 02:27:03;;;;;;;;;;;14.50;99.90;;;;;;5092999;28;19916;-65
2022/08/22 02:29:32;;;;;;;;;;;14.60;99.90;;;;;;5093680;28;19916;-66
2022/08/22 02:32:00;;;;;;;;;;;14.60;99.90;;;;;;5087903;28;19911;-65
2022/08/22 02:34:38;;;;;;;;;;;14.60;99.90;;;;;;5093675;28;20050;-66
2022/08/22 02:37:13;;;;;;;;;;;14.50;99.90;;;;;;5096954;28;19934;-66
2022/08/22 02:39:58;;;;;;;;;;;14.50;99.90;;;;;;5077535;28;19973;-65
2022/08/22 02:42:45;;;;;;;;;;;14.60;99.90;;;;;;5093443;28;19911;-66
2022/08/22 02:45:29;;;;;;;;;;;14.50;99.90;;;;;;5091752;28;19920;-67
2022/08/22 02:48:16;;;;;;;;;;;14.50;99.90;;;;;;5070104;28;19928;-67
2022/08/22 02:50:44;;;;;;;;;;;14.40;99.90;;;;;;5088680;28;20003;-66
2022/08/22 02:53:32;;;;;;;;;;;14.40;99.90;;;;;;5089189;28;19942;-65
2022/08/22 02:55:58;;;;;;;;;;;14.50;99.90;;;;;;5080613;28;19912;-66
2022/08/22 02:58:29;;;;;;;;;;;14.60;99.90;;;;;;5083833;28;19933;-65
2022/08/22 03:00:57;;;;;;;;;;;14.60;99.90;;;;;;5077164;28;19966;-65
2022/08/22 03:03:30;;;;;;;;;;;14.60;99.90;;;;;;5061633;28;19919;-66
2022/08/22 03:05:56;;;;;;;;;;;14.50;99.90;;;;;;5079610;28;19931;-66
2022/08/22 03:08:36;;;;;;;;;;;14.50;99.90;;;;;;5084460;28;19916;-67
2022/08/22 03:11:02;;;;;;;;;;;14.50;99.90;;;;;;5078788;28;19920;-66
2022/08/22 03:13:49;;;;;;;;;;;14.40;99.90;;;;;;5088624;28;19912;-65
2022/08/22 03:16:15;;;;;;;;;;;14.50;99.90;;;;;;5078902;28;19920;-67
2022/08/22 03:18:43;;;;;;;;;;;14.40;99.90;;;;;;5071640;28;19966;-67
2022/08/22 03:21:12;;;;;;;;;;;14.40;99.90;;;;;;5090889;28;19912;-67
2022/08/22 03:23:47;;;;;;;;;;;14.50;99.90;;;;;;5083657;28;19966;-67
2022/08/22 03:26:16;;;;;;;;;;;14.50;99.90;;;;;;5077239;28;20008;-67
2022/08/22 03:28:45;;;;;;;;;;;14.50;99.90;;;;;;5066063;28;19916;-65
2022/08/22 03:31:10;;;;;;;;;;;14.50;99.90;;;;;;5084783;28;19916;-67
2022/08/22 03:33:36;;;;;;;;;;;14.40;99.90;;;;;;5075738;28;19973;-67
2022/08/22 03:36:31;;;;;;;;;;;14.40;99.90;;;;;;5063028;28;20650;-67
2022/08/22 03:39:10;;;;;;;;;;;14.30;99.90;;;;;;5062492;28;20332;-66
2022/08/22 03:41:48;;;;;;;;;;;14.20;99.90;;;;;;5086626;28;19923;-67
2022/08/22 03:44:33;;;;;;;;;;;14.20;99.90;;;;;;5077104;28;19999;-66
2022/08/22 03:47:17;;;;;;;;;;;14.10;99.90;;;;;;5083372;28;19916;-66
2022/08/22 03:49:45;;;;;;;;;;;14.10;99.90;;;;;;5071573;28;20381;-66
2022/08/22 03:52:11;;;;;;;;;;;14.00;99.90;;;;;;5080136;28;20535;-67
2022/08/22 03:54:39;;;;;;;;;;;14.10;99.90;;;;;;5076530;28;19920;-66
2022/08/22 03:57:08;;;;;;;;;;;14.10;99.90;;;;;;5076095;28;20345;-66
2022/08/22 03:59:52;;;;;;;;;;;14.10;99.90;;;;;;5080402;28;19917;-66
2022/08/22 04:02:20;;;;;;;;;;;14.00;99.90;;;;;;5080312;28;19919;-65
2022/08/22 04:05:21;;;;;;;;;;;14.00;99.90;;;;;;5075846;28;20465;-66
2022/08/22 04:08:08;;;;;;;;;;;13.90;99.90;;;;;;4999914;28;20055;-65
2022/08/22 04:10:50;;;;;;;;;;;13.90;99.90;;;;;;5070545;28;19961;-66
2022/08/22 04:13:28;;;;;;;;;;;14.00;99.90;;;;;;5077466;28;19926;-66
2022/08/22 04:16:02;;;;;;;;;;;14.00;99.90;;;;;;5079072;28;19912;-65
2022/08/22 04:18:46;;;;;;;;;;;14.00;99.90;;;;;;5068950;28;19912;-65
2022/08/22 04:21:24;;;;;;;;;;;14.10;99.90;;;;;;5080687;28;20300;-65
2022/08/22 04:24:02;;;;;;;;;;;14.20;99.90;;;;;;5079916;28;19912;-66
2022/08/22 04:27:06;;;;;;;;;;;14.20;99.90;;;;;;5081208;28;20269;-66
2022/08/22 04:29:35;;;;;;;;;;;14.20;99.90;;;;;;5033965;28;19925;-65
2022/08/22 04:32:10;;;;;;;;;;;14.20;99.90;;;;;;5037749;28;19999;-65
2022/08/22 04:34:38;;;;;;;;;;;14.00;99.90;;;;;;5064984;28;19920;-66
2022/08/22 04:37:16;;;;;;;;;;;14.00;99.90;;;;;;5078562;28;19920;-65
2022/08/22 04:39:45;;;;;;;;;;;14.00;99.90;;;;;;5080383;28;20018;-66
2022/08/22 04:42:20;;;;;;;;;;;14.00;99.90;;;;;;5067671;28;19939;-66
2022/08/22 04:45:09;;;;;;;;;;;14.00;99.90;;;;;;5078199;28;19912;-66
2022/08/22 04:47:53;;;;;;;;;;;14.00;99.90;;;;;;5065961;28;20262;-66
2022/08/22 04:50:22;;;;;;;;;;;14.00;99.90;;;;;;5078928;28;19923;-66
2022/08/22 04:52:55;;;;;;;;;;;13.80;99.90;;;;;;5080349;28;20008;-66
2022/08/22 04:55:20;;;;;;;;;;;13.70;99.90;;;;;;5081478;28;20311;-67
2022/08/22 04:58:07;;;;;;;;;;;13.80;99.90;;;;;;5076087;28;19913;-66
2022/08/22 05:00:51;;;;;;;;;;;13.90;99.90;;;;;;5078924;28;19912;-66
2022/08/22 05:03:18;;;;;;;;;;;13.90;99.90;;;;;;5072778;28;19913;-66
2022/08/22 05:05:46;;;;;;;;;;;14.00;99.90;;;;;;5084371;28;20007;-66
2022/08/22 05:08:14;;;;;;;;;;;13.90;99.90;;;;;;5075253;28;19927;-65
2022/08/22 05:10:42;;;;;;;;;;;13.90;99.90;;;;;;5083449;28;19982;-66
2022/08/22 05:13:08;;;;;;;;;;;14.00;99.90;;;;;;5075393;28;20487;-66
2022/08/22 05:15:36;;;;;;;;;;;14.00;99.90;;;;;;5074053;28;19935;-67
2022/08/22 05:18:06;;;;;;;;;;;14.00;99.90;;;;;;5078043;28;19923;-66
2022/08/22 05:20:33;;;;;;;;;;;14.00;99.90;;;;;;5067715;28;20002;-66
2022/08/22 05:23:01;;;;;;;;;;;14.00;99.90;;;;;;5069994;28;19923;-65
2022/08/22 05:25:31;;;;;;;;;;;13.90;99.90;;;;;;5076044;28;19913;-66
2022/08/22 05:28:15;;;;;;;;;;;13.90;99.90;;;;;;5081124;28;20342;-66
2022/08/22 05:30:42;;;;;;;;;;;14.00;99.90;;;;;;5058411;28;19923;-66
2022/08/22 05:33:07;;;;;;;;;;;14.00;99.90;;;;;;5079312;28;20247;-65
2022/08/22 05:35:38;;;;;;;;;;;14.10;99.90;;;;;;5081144;28;19923;-66
2022/08/22 05:38:06;;;;;;;;;;;14.10;99.90;;;;;;5080469;28;19919;-66
2022/08/22 05:40:33;;;;;;;;;;;14.20;99.90;;;;;;5079275;28;19916;-66
2022/08/22 05:42:59;;;;;;;;;;;14.20;99.90;;;;;;5080342;28;19920;-65
2022/08/22 05:45:25;;;;;;;;;;;14.40;99.90;;;;;;5082405;28;19912;-68
2022/08/22 05:47:54;;;;;;;;;;;14.50;99.90;;;;;;5083035;28;19916;-67
2022/08/22 05:50:43;;;;;;;;;;;14.60;99.90;;;;;;5083594;28;19968;-66
2022/08/22 05:53:08;;;;;;;;;;;14.70;99.90;;;;;;5056909;28;19927;-66
2022/08/22 05:55:53;;;;;;;;;;;14.70;99.90;;;;;;5077292;28;19912;-66
2022/08/22 05:58:27;;;;;;;;;;;14.80;99.90;;;;;;5076887;28;19912;-65
2022/08/22 06:00:57;;;;;;;;;;;14.90;99.90;;;;;;5072453;28;19942;-67
2022/08/22 06:03:25;;;;;;;;;;;14.90;99.90;;;;;;5086800;28;19965;-66
2022/08/22 06:05:52;;;;;;;;;;;15.00;99.90;;;;;;5078158;28;19990;-66
2022/08/22 06:08:31;;;;;;;;;;;15.00;99.90;;;;;;5080945;28;19923;-65
2022/08/22 06:10:59;;;;;;;;;;;15.00;99.90;;;;;;5081686;28;19920;-67
2022/08/22 06:13:40;;;;;;;;;;;15.10;99.90;;;;;;5082769;28;19912;-66
2022/08/22 06:16:15;;;;;;;;;;;15.20;99.90;;;;;;5081805;28;19969;-67
2022/08/22 06:18:42;;;;;;;;;;;15.50;99.90;;;;;;5080002;28;19916;-68
2022/08/22 06:21:30;;;;;;;;;;;15.80;99.90;;;;;;5086176;28;20420;-66
2022/08/22 06:23:57;;;;;;;;;;;15.90;99.90;;;;;;5090025;28;19912;-67
2022/08/22 06:26:24;;;;;;;;;;;16.10;99.90;;;;;;5085207;28;19920;-66
2022/08/22 06:28:51;;;;;;;;;;;16.20;99.90;;;;;;5082127;28;19920;-66
2022/08/22 06:31:39;;;;;;;;;;;16.40;99.90;;;;;;5080124;28;20487;-66
2022/08/22 06:34:05;;;;;;;;;;;16.60;99.90;;;;;;5083559;28;19920;-66
2022/08/22 06:36:32;;;;;;;;;;;16.60;99.90;;;;;;5082657;28;20370;-67
2022/08/22 06:38:58;;;;;;;;;;;16.70;99.90;;;;;;5083977;28;19956;-66
2022/08/22 06:41:25;;;;;;;;;;;16.80;99.90;;;;;;5084433;28;20109;-67
2022/08/22 06:43:51;;;;;;;;;;;16.90;99.90;;;;;;5084784;28;19912;-65
2022/08/22 06:46:18;;;;;;;;;;;17.00;99.90;;;;;;5086844;28;19927;-66
2022/08/22 06:48:47;;;;;;;;;;;17.10;99.90;;;;;;5089548;28;19916;-65
2022/08/22 06:51:14;;;;;;;;;;;17.10;99.90;;;;;;5085390;28;19916;-66
2022/08/22 06:53:43;;;;;;;;;;;17.10;99.90;;;;;;5072802;28;19924;-67
2022/08/22 06:56:10;;;;;;;;;;;17.30;99.90;;;;;;5089510;28;19923;-66
2022/08/22 06:58:38;;;;;;;;;;;17.50;99.90;;;;;;5092250;28;19977;-66
2022/08/22 07:01:07;;;;;;;;;;;17.60;99.90;;;;;;5089873;28;19935;-65
2022/08/22 07:03:35;;;;;;;;;;;17.70;99.90;;;;;;5079155;28;20440;-66
2022/08/22 07:06:02;;;;;;;;;;;18.00;99.90;;;;;;5083177;28;20300;-66
2022/08/22 07:08:31;;;;;;;;;;;18.10;99.90;;;;;;5082372;28;19963;-67
2022/08/22 07:11:09;;;;;;;;;;;18.20;99.90;;;;;;5080632;28;20305;-67
2022/08/22 07:13:36;;;;;;;;;;;18.20;99.90;;;;;;5080486;28;19943;-65
2022/08/22 07:16:03;;;;;;;;;;;18.20;99.90;;;;;;5077958;28;19976;-67
2022/08/22 07:18:30;;;;;;;;;;;18.30;99.90;;;;;;5067609;28;19965;-67
2022/08/22 07:20:58;;;;;;;;;;;18.50;99.90;;;;;;5074367;28;19916;-66
2022/08/22 07:23:30;;;;;;;;;;;18.60;99.90;;;;;;5055382;28;19917;-68
2022/08/22 07:26:05;;;;;;;;;;;18.80;99.90;;;;;;5071391;28;19916;-69
2022/08/22 07:28:44;;;;;;;;;;;18.90;99.90;;;;;;5081401;28;19960;-67
2022/08/22 07:31:15;;;;;;;;;;;19.10;99.90;;;;;;5080632;28;20006;-67
2022/08/22 07:33:43;;;;;;;;;;;19.20;99.90;;;;;;5081127;28;19920;-68
2022/08/22 07:36:19;;;;;;;;;;;19.40;99.90;;;;;;5086349;28;19919;-66
2022/08/22 07:38:55;;;;;;;;;;;19.50;99.90;;;;;;5087345;28;19913;-66
2022/08/22 07:41:27;;;;;;;;;;;19.50;99.90;;;;;;5088532;28;19920;-67
2022/08/22 07:43:56;;;;;;;;;;;19.60;99.90;;;;;;5091195;28;20369;-66
2022/08/22 07:46:31;;;;;;;;;;;19.70;99.90;;;;;;5091494;28;20149;-65
2022/08/22 07:49:00;;;;;;;;;;;19.80;99.90;;;;;;5079564;28;19916;-66
2022/08/22 07:51:40;;;;;;;;;;;19.90;99.90;;;;;;5082725;28;19949;-67
2022/08/22 07:54:08;;;;;;;;;;;20.00;99.90;;;;;;5077768;28;20262;-68
2022/08/22 07:56:41;;;;;;;;;;;20.10;99.90;;;;;;5065519;28;19948;-67
2022/08/22 07:59:16;;;;;;;;;;;20.20;99.90;;;;;;5069891;28;19916;-68
2022/08/22 08:01:46;;;;;;;;;;;20.40;99.90;;;;;;5076784;28;19913;-67
2022/08/22 08:04:16;;;;;;;;;;;20.20;99.90;;;;;;5063081;28;19912;-66
2022/08/22 08:06:41;;;;;;;;;;;20.00;99.90;;;;;;5079941;28;19916;-67
2022/08/22 08:09:08;;;;;;;;;;;19.90;99.90;;;;;;5083794;28;20072;-67
2022/08/22 08:11:38;;;;;;;;;;;19.90;99.90;;;;;;5081044;28;19943;-67
2022/08/22 08:14:06;;;;;;;;;;;20.00;99.90;;;;;;5074134;28;20242;-66
2022/08/22 08:16:39;;;;;;;;;;;20.20;99.90;;;;;;5072896;28;19992;-66
2022/08/22 08:19:05;;;;;;;;;;;20.40;99.90;;;;;;5076885;28;20401;-67
2022/08/22 08:21:52;;;;;;;;;;;20.50;99.90;;;;;;5077644;28;20324;-66
2022/08/22 08:24:25;;;;;;;;;;;20.70;99.90;;;;;;5080106;28;19981;-68
2022/08/22 08:29:39;;;;;;;;;;;21.00;99.90;;;;;;5064748;28;19953;-66
2022/08/22 08:32:08;;;;;;;;;;;21.10;99.90;;;;;;5068735;28;19912;-66
2022/08/22 08:34:36;;;;;;;;;;;21.00;99.90;;;;;;5078359;28;19981;-68
2022/08/22 08:37:10;;;;;;;;;;;21.10;99.90;;;;;;5082642;28;20503;-66
2022/08/22 08:39:48;;;;;;;;;;;21.00;99.90;;;;;;5074482;28;19926;-67
2022/08/22 08:42:32;;;;;;;;;;;20.70;99.90;;;;;;5090806;28;19989;-67
2022/08/22 08:45:16;;;;;;;;;;;21.00;99.90;;;;;;5081493;28;19919;-66
2022/08/22 08:47:50;;;;;;;;;;;21.20;99.90;;;;;;5068185;28;19965;-68
2022/08/22 08:50:22;;;;;;;;;;;21.10;99.90;;;;;;5062004;28;19916;-66
2022/08/22 08:53:06;;;;;;;;;;;21.10;99.90;;;;;;5060939;28;19982;-67
2022/08/22 08:55:52;;;;;;;;;;;21.40;99.90;;;;;;5081331;28;19991;-67
2022/08/22 08:58:39;;;;;;;;;;;21.70;99.90;;;;;;5068503;28;20286;-67
2022/08/22 09:01:16;;;;;;;;;;;22.00;99.90;;;;;;5073844;28;19915;-69
2022/08/22 09:03:55;;;;;;;;;;;22.10;99.90;;;;;;5091507;28;19936;-67
2022/08/22 09:06:43;;;;;;;;;;;22.20;99.90;;;;;;5086438;28;19916;-67
2022/08/22 09:09:09;;;;;;;;;;;22.20;99.90;;;;;;5077648;28;20337;-68
2022/08/22 09:11:50;;;;;;;;;;;22.30;99.90;;;;;;5080743;28;19951;-67
2022/08/22 09:14:15;;;;;;;;;;;22.40;99.90;;;;;;5064463;28;19913;-68
2022/08/22 09:17:00;;;;;;;;;;;22.60;99.90;;;;;;5080890;28;20003;-66
2022/08/22 09:19:39;;;;;;;;;;;22.80;99.90;;;;;;5076771;28;19916;-68
2022/08/22 09:22:23;;;;;;;;;;;22.90;99.90;;;;;;5079779;28;20370;-66
2022/08/22 09:24:50;;;;;;;;;;;23.00;99.90;;;;;;5081250;28;19916;-67
2022/08/22 09:27:36;;;;;;;;;;;23.10;99.90;;;;;;5078326;28;19931;-65
2022/08/22 09:30:08;;;;;;;;;;;23.30;99.90;;;;;;5083752;28;19923;-66
2022/08/22 09:32:43;;;;;;;;;;;23.70;99.90;;;;;;5073490;28;19920;-65
2022/08/22 09:35:28;;;;;;;;;;;23.70;99.90;;;;;;5071227;28;19968;-65
2022/08/22 09:38:12;;;;;;;;;;;23.70;99.90;;;;;;5076444;28;20422;-66
2022/08/22 09:40:46;;;;;;;;;;;23.80;99.90;;;;;;5074622;28;19960;-66
2022/08/22 09:43:20;;;;;;;;;;;23.70;99.90;;;;;;5079808;28;19922;-67
2022/08/22 09:45:56;;;;;;;;;;;23.40;99.90;;;;;;5086984;28;19970;-66
2022/08/22 09:48:28;;;;;;;;;;;23.20;99.90;;;;;;5084301;28;19988;-67
2022/08/22 09:51:13;;;;;;;;;;;23.10;99.90;;;;;;5086208;28;19927;-67
2022/08/22 09:53:48;;;;;;;;;;;23.10;99.90;;;;;;5084708;28;20310;-65
2022/08/22 09:56:33;;;;;;;;;;;23.10;99.90;;;;;;5083494;28;19916;-65
2022/08/22 09:59:17;;;;;;;;;;;23.00;99.90;;;;;;5091208;28;19920;-66
2022/08/22 10:01:46;;;;;;;;;;;22.80;99.90;;;;;;5085098;28;19966;-65
2022/08/22 10:04:18;;;;;;;;;;;22.60;99.90;;;;;;5068076;28;19916;-65
2022/08/22 10:06:54;;;;;;;;;;;22.50;99.90;;;;;;5089270;28;20383;-67
2022/08/22 10:09:21;;;;;;;;;;;22.40;99.90;;;;;;5084993;28;20242;-66
2022/08/22 10:11:52;;;;;;;;;;;22.40;99.90;;;;;;5096384;28;19995;-67
2022/08/22 10:14:20;;;;;;;;;;;22.40;99.90;;;;;;5085340;28;19912;-68
2022/08/22 10:16:46;;;;;;;;;;;22.40;99.90;;;;;;5086050;28;20373;-67
2022/08/22 10:19:30;;;;;;;;;;;22.30;99.90;;;;;;5080978;28;19957;-67
2022/08/22 10:21:59;;;;;;;;;;;22.30;99.90;;;;;;5089031;28;21063;-67
2022/08/22 10:24:34;;;;;;;;;;;22.20;99.90;;;;;;5072165;28;19924;-66
2022/08/22 10:27:06;;;;;;;;;;;22.10;99.90;;;;;;5096791;28;19916;-67
2022/08/22 10:29:41;;;;;;;;;;;22.10;99.90;;;;;;5087707;28;19956;-69
2022/08/22 10:32:09;;;;;;;;;;;22.20;99.90;;;;;;5093414;28;19916;-66
2022/08/22 10:34:37;;;;;;;;;;;22.20;99.90;;;;;;5089750;28;19935;-68
2022/08/22 10:37:22;;;;;;;;;;;22.10;99.90;;;;;;5090235;28;19920;-68
2022/08/22 10:39:59;;;;;;;;;;;22.20;99.90;;;;;;5088296;28;20226;-67
2022/08/22 10:42:24;;;;;;;;;;;21.90;99.90;;;;;;5089753;28;20053;-67
2022/08/22 10:44:58;;;;;;;;;;;21.80;99.90;;;;;;5085824;28;19928;-67
2022/08/22 10:47:32;;;;;;;;;;;21.70;99.90;;;;;;5091884;28;19916;-66
2022/08/22 10:50:02;;;;;;;;;;;21.70;99.90;;;;;;5084711;28;20058;-68
2022/08/22 10:52:31;;;;;;;;;;;21.80;99.90;;;;;;5083336;28;19980;-67
2022/08/22 10:54:57;;;;;;;;;;;21.80;99.90;;;;;;5090769;28;19934;-67
2022/08/22 10:57:31;;;;;;;;;;;21.80;99.90;;;;;;5101509;28;19920;-67
2022/08/22 10:59:59;;;;;;;;;;;21.80;99.90;;;;;;5074720;28;19966;-66
2022/08/22 11:02:34;;;;;;;;;;;21.80;99.90;;;;;;5095846;28;19931;-67
2022/08/22 11:05:13;;;;;;;;;;;22.10;99.90;;;;;;5093927;28;19912;-66
2022/08/22 11:08:05;;;;;;;;;;;22.30;99.90;;;;;;5089240;28;19979;-68
2022/08/22 11:10:30;;;;;;;;;;;22.50;99.90;;;;;;5057552;28;19916;-67
2022/08/22 11:13:15;;;;;;;;;;;22.50;99.90;;;;;;5097768;28;19974;-67
2022/08/22 11:15:59;;;;;;;;;;;22.50;99.90;;;;;;5082837;28;20135;-67
2022/08/22 11:18:48;;;;;;;;;;;22.50;99.90;;;;;;5100780;28;19916;-67
2022/08/22 11:21:14;;;;;;;;;;;22.40;99.90;;;;;;5056716;28;20181;-67
2022/08/22 11:23:39;;;;;;;;;;;22.50;99.90;;;;;;5086647;28;19923;-68
2022/08/22 11:26:08;;;;;;;;;;;22.50;99.90;;;;;;5088795;28;19996;-67
2022/08/22 11:28:42;;;;;;;;;;;22.50;99.90;;;;;;5094334;28;19947;-67
2022/08/22 11:31:20;;;;;;;;;;;22.40;99.90;;;;;;5089185;28;19927;-67
2022/08/22 11:34:06;;;;;;;;;;;22.40;99.90;;;;;;5070633;28;20388;-67
2022/08/22 11:36:33;;;;;;;;;;;22.20;99.90;;;;;;5085437;28;20304;-67
2022/08/22 11:39:17;;;;;;;;;;;22.20;99.90;;;;;;5085282;28;19920;-67
2022/08/22 11:42:02;;;;;;;;;;;22.20;99.90;;;;;;5093869;28;20011;-66
2022/08/22 11:44:47;;;;;;;;;;;22.30;99.90;;;;;;5092514;28;19912;-67
2022/08/22 11:47:14;;;;;;;;;;;22.10;99.90;;;;;;5093631;28;19928;-67
2022/08/22 11:49:58;;;;;;;;;;;21.90;99.90;;;;;;5091078;28;19913;-67
2022/08/22 11:52:47;;;;;;;;;;;21.90;99.90;;;;;;5090583;28;19975;-67
2022/08/22 11:55:16;;;;;;;;;;;21.70;99.90;;;;;;5070993;28;19912;-67
2022/08/22 11:57:43;;;;;;;;;;;21.70;99.90;;;;;;5088271;28;19908;-67
2022/08/22 12:00:17;;;;;;;;;;;21.90;99.90;;;;;;5090786;28;19920;-68
2022/08/22 12:03:01;;;;;;;;;;;22.10;99.90;;;;;;5094557;28;19991;-66
2022/08/22 12:05:34;;;;;;;;;;;22.20;99.90;;;;;;5074934;28;19959;-68
2022/08/22 12:08:06;;;;;;;;;;;22.20;99.90;;;;;;5092764;28;19925;-67
2022/08/22 12:10:40;;;;;;;;;;;22.10;99.90;;;;;;5090254;28;19916;-68
2022/08/22 12:13:22;;;;;;;;;;;22.10;99.90;;;;;;5083663;28;20476;-64
2022/08/22 12:15:47;;;;;;;;;;;22.20;99.90;;;;;;5087045;28;19912;-67
2022/08/22 12:18:19;;;;;;;;;;;22.30;99.90;;;;;;5090354;28;20364;-67
2022/08/22 12:20:54;;;;;;;;;;;22.30;99.90;;;;;;5089332;28;19921;-67
2022/08/22 12:23:25;;;;;;;;;;;22.30;99.90;;;;;;5088091;28;19912;-66
2022/08/22 12:26:09;;;;;;;;;;;22.30;99.90;;;;;;5082542;28;20376;-67
2022/08/22 12:28:38;;;;;;;;;;;22.40;99.90;;;;;;5097854;28;19916;-67
2022/08/22 12:31:04;;;;;;;;;;;22.40;99.90;;;;;;5097919;28;19924;-68
2022/08/22 12:33:54;;;;;;;;;;;22.40;99.90;;;;;;5090517;28;19974;-65
2022/08/22 12:36:23;;;;;;;;;;;22.40;99.90;;;;;;5082717;28;19950;-68
2022/08/22 12:38:54;;;;;;;;;;;22.60;99.90;;;;;;5085488;28;19940;-67
2022/08/22 12:41:34;;;;;;;;;;;22.90;99.90;;;;;;5080779;28;19916;-68
2022/08/22 12:44:06;;;;;;;;;;;23.00;99.90;;;;;;5085561;28;19919;-68
2022/08/22 12:46:31;;;;;;;;;;;23.00;99.90;;;;;;5098171;28;19983;-69
2022/08/22 12:49:09;;;;;;;;;;;22.90;99.90;;;;;;5089411;28;19952;-67
2022/08/22 12:51:42;;;;;;;;;;;23.00;99.90;;;;;;5065294;28;19913;-68
2022/08/22 12:54:17;;;;;;;;;;;23.20;99.90;;;;;;5089604;28;19913;-69
2022/08/22 12:56:47;;;;;;;;;;;23.30;99.90;;;;;;5082272;28;19912;-69
2022/08/22 12:59:25;;;;;;;;;;;23.20;99.90;;;;;;5088940;28;19951;-68
2022/08/22 13:02:10;;;;;;;;;;;23.00;99.90;;;;;;5087605;28;19912;-67
2022/08/22 13:04:41;;;;;;;;;;;22.90;99.90;;;;;;5081238;28;19917;-67
2022/08/22 13:07:15;;;;;;;;;;;22.70;99.90;;;;;;5086515;28;20015;-67
2022/08/22 13:09:45;;;;;;;;;;;22.70;99.90;;;;;;5089083;28;19913;-67
2022/08/22 13:12:38;;;;;;;;;;;22.60;99.90;;;;;;5080965;28;19924;-65
2022/08/22 13:15:11;;;;;;;;;;;22.50;99.90;;;;;;5077862;28;20011;-67
2022/08/22 13:17:36;;;;;;;;;;;22.30;99.90;;;;;;5081875;28;19918;-66
2022/08/22 13:20:07;;;;;;;;;;;22.20;99.90;;;;;;5077895;28;20000;-65
2022/08/22 13:22:34;;;;;;;;;;;22.10;99.90;;;;;;5079269;28;19912;-67
2022/08/22 13:25:03;;;;;;;;;;;22.00;99.90;;;;;;5065273;28;20075;-66
2022/08/22 13:27:43;;;;;;;;;;;21.90;99.90;;;;;;5078848;28;20454;-66
2022/08/22 13:30:15;;;;;;;;;;;22.00;99.90;;;;;;5081938;28;19916;-67
2022/08/22 13:32:46;;;;;;;;;;;22.30;99.90;;;;;;5062681;28;19967;-68
2022/08/22 13:35:24;;;;;;;;;;;22.50;99.90;;;;;;5057854;28;19928;-68
2022/08/22 13:37:57;;;;;;;;;;;22.80;99.90;;;;;;5078132;28;19919;-66
2022/08/22 13:40:27;;;;;;;;;;;23.10;99.90;;;;;;5077575;28;19916;-68
2022/08/22 13:43:00;;;;;;;;;;;23.40;99.90;;;;;;5089249;28;19912;-71
2022/08/22 13:45:27;;;;;;;;;;;23.60;99.90;;;;;;5091011;28;19931;-67
2022/08/22 13:47:54;;;;;;;;;;;23.70;99.90;;;;;;5085038;28;20277;-68
2022/08/22 13:50:21;;;;;;;;;;;23.80;99.90;;;;;;5082006;28;19912;-69
2022/08/22 13:52:54;;;;;;;;;;;23.80;99.90;;;;;;5080023;28;19920;-66
2022/08/22 13:55:24;;;;;;;;;;;23.80;99.90;;;;;;5082235;28;19912;-67
2022/08/22 13:57:57;;;;;;;;;;;23.70;99.90;;;;;;5082965;28;19912;-67
2022/08/22 14:00:28;;;;;;;;;;;23.40;99.90;;;;;;5083572;28;19912;-69
2022/08/22 14:03:03;;;;;;;;;;;23.30;99.90;;;;;;5084807;28;19920;-66
2022/08/22 14:05:28;;;;;;;;;;;23.50;99.90;;;;;;5084746;28;20955;-67
2022/08/22 14:07:57;;;;;;;;;;;23.60;99.90;;;;;;5092446;28;19921;-67
2022/08/22 14:10:25;;;;;;;;;;;23.80;99.90;;;;;;5097015;28;19934;-68
2022/08/22 14:12:57;;;;;;;;;;;23.80;99.90;;;;;;5071638;28;20421;-68
2022/08/22 14:15:33;;;;;;;;;;;23.90;99.90;;;;;;5089352;28;19920;-69
2022/08/22 14:18:00;;;;;;;;;;;24.00;99.90;;;;;;5090555;28;19928;-68
2022/08/22 14:20:29;;;;;;;;;;;23.90;99.90;;;;;;5087018;28;19920;-67
2022/08/22 14:23:01;;;;;;;;;;;23.70;99.90;;;;;;5092075;28;19912;-70
2022/08/22 14:25:32;;;;;;;;;;;23.60;99.90;;;;;;5065100;28;19935;-69
2022/08/22 14:27:59;;;;;;;;;;;23.50;99.90;;;;;;5091636;28;19924;-67
2022/08/22 14:30:31;;;;;;;;;;;23.60;99.90;;;;;;5081256;28;19921;-68
2022/08/22 14:33:06;;;;;;;;;;;23.60;99.90;;;;;;5066730;28;19907;-67
2022/08/22 14:35:34;;;;;;;;;;;23.80;99.90;;;;;;5094011;28;19958;-68
2022/08/22 14:38:13;;;;;;;;;;;23.90;99.90;;;;;;5098548;28;19916;-67
2022/08/22 14:40:39;;;;;;;;;;;24.20;99.90;;;;;;5097402;28;19916;-68
2022/08/22 14:43:14;;;;;;;;;;;24.50;99.90;;;;;;5077661;28;19917;-66
2022/08/22 14:45:44;;;;;;;;;;;24.70;99.90;;;;;;5095802;28;19912;-67
2022/08/22 14:48:14;;;;;;;;;;;24.60;99.90;;;;;;5094207;28;19931;-68
2022/08/22 14:50:42;;;;;;;;;;;24.50;99.90;;;;;;5091661;28;19923;-67
2022/08/22 14:53:27;;;;;;;;;;;24.30;99.90;;;;;;5092928;28;19992;-68
2022/08/22 14:56:01;;;;;;;;;;;24.30;99.90;;;;;;5097628;28;19946;-67
2022/08/22 14:58:28;;;;;;;;;;;24.50;99.90;;;;;;5095653;28;19920;-67